Flight Track Log - Related Links

Times and Time Zones

All times are in EDT time to prevent confusion due to time zone crossing. See the VH-KNI flight status page for this flight to view local times or setup timezone preferences in your user account.

Time Position Orientation Groundspeed Altitude Reporting Facility
EDT Latitude Longitude Course Direction KTS MPH feet Rate Location/Type
Mon 10:02:51 PM -33.4639 149.6408 282° West 95 109 4,700  Level Aus ATC (RADAR)
Mon 10:03:36 PM -33.4594 149.6145 283° West 100 115 5,600 1,139 Climbing Aus ATC (RADAR)
Mon 10:04:10 PM -33.4557 149.5950 281° West 100 115 6,200 1,139 Climbing Aus ATC (RADAR)
Mon 10:04:55 PM -33.4514 149.5693 249° West 100 115 7,100 1,040 Climbing Aus ATC (RADAR)
Mon 10:05:25 PM -33.4567 149.5527 254° West 103 119 7,500 540 Climbing Aus ATC (RADAR)
Mon 10:06:35 PM -33.4675 149.5091 244° Southwest 124 143 8,000 231 Climbing Aus ATC (RADAR)
Mon 10:07:35 PM -33.4823 149.4727 232° Southwest 119 137 8,000  Level Aus ATC (RADAR)
Mon 10:08:25 PM -33.5002 149.4449 241° Southwest 125 144 8,000 70 Level Aus ATC (RADAR)
Mon 10:09:01 PM -33.5104 149.4228 246° West 127 146 8,100 -150 Climbing Aus ATC (RADAR)
Mon 10:09:45 PM -33.5212 149.3939 244° Southwest 123 142 7,800 -58 Descending Aus ATC (RADAR)
Mon 10:10:45 PM -33.5371 149.3557 244° Southwest 126 145 8,000 100 Climbing Aus ATC (RADAR)
Mon 10:11:45 PM -33.5526 149.3174 240° Southwest 125 144 8,000  Level Aus ATC (RADAR)
Mon 10:12:45 PM -33.5705 149.2807 239° Southwest 126 145 8,000  Level Aus ATC (RADAR)
Mon 10:13:35 PM -33.5852 149.2511 238° Southwest 122 140 8,000 -71 Level Aus ATC (RADAR)
Mon 10:14:10 PM -33.5961 149.2305 240° Southwest 125 144 7,900 -76 Descending Aus ATC (RADAR)
Mon 10:14:54 PM -33.6097 149.2028 237° Southwest 127 146 7,900  Level Aus ATC (RADAR)
Mon 10:15:54 PM -33.6291 149.1669 238° Southwest 127 146 7,900 44 Level Aus ATC (RADAR)
Mon 10:17:09 PM -33.6527 149.1212 237° Southwest 126 145 8,000 46 Climbing Aus ATC (RADAR)
Mon 10:18:04 PM -33.6707 149.0879 240° Southwest 128 147 8,000  Level Aus ATC (RADAR)
Mon 10:18:49 PM -33.6844 149.0592 240° Southwest 128 147 8,000  Level Aus ATC (RADAR)
Mon 10:19:24 PM -33.6951 149.0369 240° Southwest 128 147 8,000  Level Aus ATC (RADAR)
Mon 10:20:19 PM -33.7114 149.0026 241° Southwest 127 146 8,000  Level Aus ATC (RADAR)
Mon 10:21:09 PM -33.7268 148.9696 242° Southwest 136 157 8,000 -36 Level Aus ATC (RADAR)
Mon 10:23:04 PM -33.7604 148.8945 242° Southwest 134 154 7,900 -37 Descending Aus ATC (RADAR)
Mon 10:23:53 PM -33.7742 148.8634 248° West 124 143 7,900  Level Aus ATC (RADAR)
Mon 10:24:28 PM -33.7821 148.8396 254° West 129 148 7,900  Level Aus ATC (RADAR)
Mon 10:25:03 PM -33.7882 148.8144 250° West 132 152 7,900  Level Aus ATC (RADAR)
Mon 10:25:53 PM -33.7988 148.7793 250° West 129 148 7,900  Level Aus ATC (RADAR)
Mon 10:27:28 PM -33.8184 148.7130 245° Southwest 134 154 7,900  Level Aus ATC (RADAR)
Mon 10:28:28 PM -33.8344 148.6728 245° Southwest 131 151 7,900  Level Aus ATC (RADAR)
Mon 10:29:13 PM -33.8465 148.6421 243° Southwest 140 161 7,900  Level Aus ATC (RADAR)
Mon 10:29:53 PM -33.8576 148.6161 244° Southwest 131 151 7,900  Level Aus ATC (RADAR)
Mon 10:30:38 PM -33.8699 148.5850 223° Southwest 132 152 7,900  Level Aus ATC (RADAR)
Mon 10:32:18 PM -33.9151 148.5346 209° Southwest 137 158 7,900  Level Aus ATC (RADAR)
Mon 10:32:48 PM -33.9310 148.5239 205° Southwest 135 155 7,900  Level Aus ATC (RADAR)
Mon 10:33:38 PM -33.9587 148.5084 206° Southwest 131 151 7,900  Level Aus ATC (RADAR)
Mon 10:34:22 PM -33.9833 148.4938 205° Southwest 131 151 7,900  Level Aus ATC (RADAR)
Mon 10:34:57 PM -34.0021 148.4834 212° Southwest 127 146 7,900  Level Aus ATC (RADAR)
Mon 10:35:47 PM -34.0274 148.4641 220° Southwest 124 143 7,900 124 Level Aus ATC (RADAR)
Mon 10:37:22 PM -34.0708 148.4196 219° Southwest 124 143 8,200 96 Climbing Aus ATC (RADAR)
Mon 10:37:52 PM -34.0840 148.4069 220° Southwest 122 140 8,100 -67 Descending Aus ATC (RADAR)
Mon 10:38:52 PM -34.1116 148.3791 220° Southwest 124 143 8,100  Level Aus ATC (RADAR)
Mon 10:39:37 PM -34.1322 148.3584 218° Southwest 129 148 8,100  Level Aus ATC (RADAR)
Mon 10:40:12 PM -34.1480 148.3436 219° Southwest 127 146 8,100  Level Aus ATC (RADAR)
Mon 10:40:57 PM -34.1689 148.3235 220° Southwest 125 144 8,100  Level Aus ATC (RADAR)
Mon 10:42:27 PM -34.2104 148.2811 220° Southwest 126 145 8,100  Level Aus ATC (RADAR)
Mon 10:43:26 PM -34.2370 148.2541 214° Southwest 121 139 8,100  Level Aus ATC (RADAR)
Mon 10:44:16 PM -34.2621 148.2334 213° Southwest 129 148 8,100  Level Aus ATC (RADAR)
Mon 10:44:51 PM -34.2805 148.2188 216° Southwest 134 154 8,100  Level Aus ATC (RADAR)
Mon 10:45:36 PM -34.3035 148.1988 215° Southwest 137 158 8,100  Level Aus ATC (RADAR)
Mon 10:46:36 PM -34.3334 148.1736 215° Southwest 132 152 8,100  Level Aus ATC (RADAR)
Mon 10:47:36 PM -34.3637 148.1483 215° Southwest 131 151 8,100  Level Aus ATC (RADAR)
Mon 10:48:36 PM -34.3931 148.1232 216° Southwest 128 147 8,100  Level Aus ATC (RADAR)
Mon 10:49:21 PM -34.4152 148.1040 216° Southwest 127 146 8,100  Level Aus ATC (RADAR)
Mon 10:49:56 PM -34.4318 148.0896 217° Southwest 125 144 8,100  Level Aus ATC (RADAR)
Mon 10:50:41 PM -34.4531 148.0699 216° Southwest 123 142 8,100  Level Aus ATC (RADAR)
Mon 10:51:41 PM -34.4819 148.0448 216° Southwest 129 148 8,100  Level Aus ATC (RADAR)
Mon 10:52:36 PM -34.5087 148.0214 215° Southwest 129 148 8,100  Level Aus ATC (RADAR)
Mon 10:53:40 PM -34.5408 147.9938 214° Southwest 131 151 8,100  Level Aus ATC (RADAR)
Mon 10:54:25 PM -34.5637 147.9751 214° Southwest 134 154 8,100  Level Aus ATC (RADAR)
Mon 10:55:01 PM -34.5812 147.9608 214° Southwest 128 147 8,100  Level Aus ATC (RADAR)
Mon 10:55:45 PM -34.6033 147.9426 215° Southwest 127 146 8,100  Level Aus ATC (RADAR)
Mon 10:56:45 PM -34.6317 147.9182 216° Southwest 125 144 8,100  Level Aus ATC (RADAR)
Mon 10:57:55 PM -34.6662 147.8879 215° Southwest 128 147 8,100  Level Aus ATC (RADAR)
Mon 10:58:55 PM -34.6958 147.8629 216° Southwest 126 145 8,100  Level Aus ATC (RADAR)
Mon 10:59:40 PM -34.7173 147.8439 215° Southwest 128 147 8,100  Level Aus ATC (RADAR)
Mon 11:00:15 PM -34.7340 147.8295 217° Southwest 126 145 8,100  Level Aus ATC (RADAR)
Mon 11:01:05 PM -34.7573 147.8079 217° Southwest 126 145 8,100 -345 Level Aus ATC (RADAR)
Mon 11:02:34 PM -34.8031 147.7652 219° Southwest 144 166 7,300 -388 Descending Aus ATC (RADAR)
Mon 11:03:24 PM -34.8283 147.7404 218° Southwest 134 154 7,200 -282 Descending Aus ATC (RADAR)
Mon 11:03:59 PM -34.8467 147.7230 223° Southwest 139 160 6,900 -494 Descending Aus ATC (RADAR)
Mon 11:04:49 PM -34.8709 147.6953 222° Southwest 146 168 6,500 -565 Descending Aus ATC (RADAR)
Mon 11:05:24 PM -34.8885 147.6760 218° Southwest 149 171 6,100 -525 Descending Aus ATC (RADAR)
Mon 11:06:09 PM -34.9116 147.6542 219° Southwest 139 160 5,800 -462 Descending Aus ATC (RADAR)
Mon 11:07:34 PM -34.9522 147.6146 212° Southwest 128 147 5,100 -533 Descending Aus ATC (RADAR)
Mon 11:08:24 PM -34.9799 147.5938 211° Southwest 136 157 4,600 -565 Descending Aus ATC (RADAR)
Mon 11:08:59 PM -34.9989 147.5797 206° Southwest 137 158 4,300 -375 Descending Aus ATC (RADAR)
Mon 11:09:44 PM -35.0224 147.5659 141° Southeast 120 138 4,100 -313 Descending Aus ATC (RADAR)
Mon 11:10:54 PM -35.0615 147.6045 137° Southeast 146 168 3,700 -346 Descending Aus ATC (RADAR)
Mon 11:11:28 PM -35.0794 147.6248 161° South 149 171 3,500 -87 Descending Aus ATC (RADAR)
Mon 11:12:03 PM -35.0997 147.6333 250° West 139 160 3,600 -240 Climbing Aus ATC (RADAR)
Mon 11:13:08 PM -35.1115 147.5947 228° Southwest 109 125 3,100 177 Descending Aus ATC (RADAR)
Mon 11:19:58 PM -35.2381 147.4238 182° South 119 137 5,000 310 Climbing Aus ATC (RADAR)
Mon 11:20:33 PM -35.2580 147.4231 196° South 126 145 5,400 857 Climbing Aus ATC (RADAR)
Mon 11:21:22 PM -35.2853 147.4137 209° Southwest 130 150 6,200 330 Climbing Aus ATC (RADAR)
Mon 11:22:22 PM -35.3188 147.3912 205° Southwest 138 159 6,000 -100 Descending Aus ATC (RADAR)
Mon 11:23:22 PM -35.3529 147.3714 206° Southwest 134 154 6,000  Level Aus ATC (RADAR)
Mon 11:24:22 PM -35.3863 147.3513 210° Southwest 138 159 6,000  Level Aus ATC (RADAR)
Mon 11:25:12 PM -35.4127 147.3327 207° Southwest 134 154 6,000  Level Aus ATC (RADAR)
Mon 11:25:47 PM -35.4320 147.3207 203° Southwest 132 152 6,000  Level Aus ATC (RADAR)
Mon 11:26:32 PM -35.4575 147.3073 202° Southwest 134 154 6,000 57 Level Aus ATC (RADAR)
Mon 11:27:32 PM -35.4914 147.2902 202° Southwest 131 151 6,100 44 Climbing Aus ATC (RADAR)
Mon 11:28:47 PM -35.5331 147.2696 200° South 129 148 6,100  Level Aus ATC (RADAR)
Mon 11:29:37 PM -35.5629 147.2566 208° Southwest 137 158 6,100  Level Aus ATC (RADAR)
Mon 11:30:22 PM -35.5873 147.2405 211° Southwest 134 154 6,100 -75 Level Aus ATC (RADAR)
Mon 11:30:57 PM -35.6058 147.2270 201° Southwest 133 153 6,000 -71 Descending Aus ATC (RADAR)
Mon 11:31:46 PM -35.6353 147.2128 206° Southwest 135 155 6,000  Level Aus ATC (RADAR)
Mon 11:33:36 PM -35.6965 147.1764 199° South 136 157 6,000  Level Aus ATC (RADAR)
Mon 11:34:26 PM -35.7269 147.1639 201° Southwest 138 159 6,000  Level Aus ATC (RADAR)
Mon 11:35:01 PM -35.7471 147.1541 205° Southwest 137 158 6,000 -225 Level Aus ATC (RADAR)
Mon 11:35:46 PM -35.7723 147.1397 207° Southwest 136 157 5,700 -525 Descending Aus ATC (RADAR)
Mon 11:36:21 PM -35.7934 147.1267 212° Southwest 146 168 5,300 -494 Descending Aus ATC (RADAR)
Mon 11:37:11 PM -35.8225 147.1044 206° Southwest 151 174 5,000 -1,103 Descending Aus ATC (RADAR)
Mon 11:40:42 PM -35.9521 147.0256 360° North 500 -1,280 Descending Aus ATC (Calculated)
Mon 11:40:42 PM -35.9521 147.0256 205° Southwest 500  Level Aus ATC (Calculated)
Mon 11:44:52 PM -36.0384 146.9752 27° Northeast  Level Estimated
Mon 11:45:52 PM -35.0203 147.5986 206° Southwest  Level FlightAware Approximate
Mon 11:46:52 PM -35.0408 147.5862 228° Southwest  Level Estimated
Mon 11:47:52 PM -35.0551 147.5670 206° Southwest  Level FlightAware Approximate
Mon 11:48:52 PM -35.0757 147.5547 206° Southwest  Level Estimated

Login

Don't have an account? Register now (free) for customized features, flight alerts, and more!